sensor_id;sensor_type;location;lat;lon;timestamp;temperature;humidity
49218;DHT22;35045;51.194;7.268;2023-01-15T00:01:55;7.10;99.90
49218;DHT22;35045;51.194;7.268;2023-01-15T00:04:21;7.10;99.90
49218;DHT22;35045;51.194;7.268;2023-01-15T00:06:47;7.00;99.90
49218;DHT22;35045;51.194;7.268;2023-01-15T00:09:14;6.90;99.90
49218;DHT22;35045;51.194;7.268;2023-01-15T00:11:41;6.80;99.90
49218;DHT22;35045;51.194;7.268;2023-01-15T00:14:07;6.70;99.90
49218;DHT22;35045;51.194;7.268;2023-01-15T00:16:33;6.70;99.90
49218;DHT22;35045;51.194;7.268;2023-01-15T00:19:00;6.70;99.90
49218;DHT22;35045;51.194;7.268;2023-01-15T00:21:27;6.60;99.90
49218;DHT22;35045;51.194;7.268;2023-01-15T00:23:54;6.60;99.90
49218;DHT22;35045;51.194;7.268;2023-01-15T00:26:39;6.50;99.90
49218;DHT22;35045;51.194;7.268;2023-01-15T00:29:25;6.50;99.90
49218;DHT22;35045;51.194;7.268;2023-01-15T00:32:00;6.50;99.90
49218;DHT22;35045;51.194;7.268;2023-01-15T00:34:27;6.40;99.90
49218;DHT22;35045;51.194;7.268;2023-01-15T00:36:54;6.30;99.90
49218;DHT22;35045;51.194;7.268;2023-01-15T00:39:20;6.30;99.90
49218;DHT22;35045;51.194;7.268;2023-01-15T00:41:46;6.20;99.90
49218;DHT22;35045;51.194;7.268;2023-01-15T00:44:13;6.20;99.90
49218;DHT22;35045;51.194;7.268;2023-01-15T00:46:39;6.10;99.90
49218;DHT22;35045;51.194;7.268;2023-01-15T00:49:06;6.10;99.90
49218;DHT22;35045;51.194;7.268;2023-01-15T00:51:32;6.10;99.90
49218;DHT22;35045;51.194;7.268;2023-01-15T00:53:59;6.00;99.90
49218;DHT22;35045;51.194;7.268;2023-01-15T00:56:25;6.00;99.90
49218;DHT22;35045;51.194;7.268;2023-01-15T00:58:51;5.90;99.90
49218;DHT22;35045;51.194;7.268;2023-01-15T01:01:18;6.00;99.90
49218;DHT22;35045;51.194;7.268;2023-01-15T01:03:44;5.90;99.90
49218;DHT22;35045;51.194;7.268;2023-01-15T01:06:19;6.00;99.90
49218;DHT22;35045;51.194;7.268;2023-01-15T01:08:46;6.00;99.90
49218;DHT22;35045;51.194;7.268;2023-01-15T01:11:15;5.90;99.90
49218;DHT22;35045;51.194;7.268;2023-01-15T01:13:42;6.00;99.90
49218;DHT22;35045;51.194;7.268;2023-01-15T01:16:21;5.90;99.90
49218;DHT22;35045;51.194;7.268;2023-01-15T01:18:48;5.90;99.90
49218;DHT22;35045;51.194;7.268;2023-01-15T01:21:14;5.90;99.90
49218;DHT22;35045;51.194;7.268;2023-01-15T01:23:40;5.90;99.90
49218;DHT22;35045;51.194;7.268;2023-01-15T01:26:06;6.00;99.90
49218;DHT22;35045;51.194;7.268;2023-01-15T01:28:32;6.00;99.90
49218;DHT22;35045;51.194;7.268;2023-01-15T01:30:58;6.00;99.90
49218;DHT22;35045;51.194;7.268;2023-01-15T01:33:24;6.10;99.90
49218;DHT22;35045;51.194;7.268;2023-01-15T01:35:51;6.10;99.90
49218;DHT22;35045;51.194;7.268;2023-01-15T01:38:17;6.10;99.90
49218;DHT22;35045;51.194;7.268;2023-01-15T01:40:43;6.10;99.90
49218;DHT22;35045;51.194;7.268;2023-01-15T01:43:28;6.10;99.90
49218;DHT22;35045;51.194;7.268;2023-01-15T01:45:56;6.10;99.90
49218;DHT22;35045;51.194;7.268;2023-01-15T01:48:28;6.10;99.90
49218;DHT22;35045;51.194;7.268;2023-01-15T01:50:59;6.10;99.90
49218;DHT22;35045;51.194;7.268;2023-01-15T01:53:28;6.10;99.90
49218;DHT22;35045;51.194;7.268;2023-01-15T01:55:56;6.10;99.90
49218;DHT22;35045;51.194;7.268;2023-01-15T01:58:26;6.10;99.90
49218;DHT22;35045;51.194;7.268;2023-01-15T02:00:53;6.00;99.90
49218;DHT22;35045;51.194;7.268;2023-01-15T02:03:25;6.00;99.90
49218;DHT22;35045;51.194;7.268;2023-01-15T02:05:57;6.00;99.90
49218;DHT22;35045;51.194;7.268;2023-01-15T02:08:24;6.10;99.90
49218;DHT22;35045;51.194;7.268;2023-01-15T02:10:54;6.10;99.90
49218;DHT22;35045;51.194;7.268;2023-01-15T02:13:40;6.00;99.90
49218;DHT22;35045;51.194;7.268;2023-01-15T02:16:35;6.00;99.90
49218;DHT22;35045;51.194;7.268;2023-01-15T02:25:11;6.00;99.90
49218;DHT22;35045;51.194;7.268;2023-01-15T02:27:45;6.00;99.90
49218;DHT22;35045;51.194;7.268;2023-01-15T02:30:23;5.90;99.90
49218;DHT22;35045;51.194;7.268;2023-01-15T02:33:02;5.90;99.90
49218;DHT22;35045;51.194;7.268;2023-01-15T02:35:40;5.90;99.90
49218;DHT22;35045;51.194;7.268;2023-01-15T02:38:10;5.90;99.90
49218;DHT22;35045;51.194;7.268;2023-01-15T02:40:40;5.90;99.90
49218;DHT22;35045;51.194;7.268;2023-01-15T02:43:08;5.90;99.90
49218;DHT22;35045;51.194;7.268;2023-01-15T02:45:38;5.90;99.90
49218;DHT22;35045;51.194;7.268;2023-01-15T02:48:10;5.90;99.90
49218;DHT22;35045;51.194;7.268;2023-01-15T02:50:41;5.90;99.90
49218;DHT22;35045;51.194;7.268;2023-01-15T02:53:13;5.90;99.90
49218;DHT22;35045;51.194;7.268;2023-01-15T02:55:46;6.00;99.90
49218;DHT22;35045;51.194;7.268;2023-01-15T02:58:18;6.00;99.90
49218;DHT22;35045;51.194;7.268;2023-01-15T03:00:47;6.00;99.90
49218;DHT22;35045;51.194;7.268;2023-01-15T03:03:35;5.90;99.90
49218;DHT22;35045;51.194;7.268;2023-01-15T03:08:38;5.90;99.90
49218;DHT22;35045;51.194;7.268;2023-01-15T03:11:11;5.90;99.90
49218;DHT22;35045;51.194;7.268;2023-01-15T03:16:35;5.90;99.90
49218;DHT22;35045;51.194;7.268;2023-01-15T03:19:16;5.80;99.90
49218;DHT22;35045;51.194;7.268;2023-01-15T03:24:56;5.70;99.90
49218;DHT22;35045;51.194;7.268;2023-01-15T03:27:23;5.70;99.90
49218;DHT22;35045;51.194;7.268;2023-01-15T03:30:03;5.70;99.90
49218;DHT22;35045;51.194;7.268;2023-01-15T03:32:30;5.70;99.90
49218;DHT22;35045;51.194;7.268;2023-01-15T03:34:57;5.70;99.90
49218;DHT22;35045;51.194;7.268;2023-01-15T03:37:24;5.60;99.90
49218;DHT22;35045;51.194;7.268;2023-01-15T03:39:53;5.60;99.90
49218;DHT22;35045;51.194;7.268;2023-01-15T03:42:47;5.60;99.90
49218;DHT22;35045;51.194;7.268;2023-01-15T03:45:29;5.60;99.90
49218;DHT22;35045;51.194;7.268;2023-01-15T03:48:04;5.60;99.90
49218;DHT22;35045;51.194;7.268;2023-01-15T03:50:59;5.70;99.90
49218;DHT22;35045;51.194;7.268;2023-01-15T03:53:36;5.70;99.90
49218;DHT22;35045;51.194;7.268;2023-01-15T03:58:38;5.60;99.90
49218;DHT22;35045;51.194;7.268;2023-01-15T04:01:09;5.70;99.90
49218;DHT22;35045;51.194;7.268;2023-01-15T04:03:38;5.60;99.90
49218;DHT22;35045;51.194;7.268;2023-01-15T04:06:05;5.70;99.90
49218;DHT22;35045;51.194;7.268;2023-01-15T04:08:36;5.70;99.90
49218;DHT22;35045;51.194;7.268;2023-01-15T04:11:04;5.70;99.90
49218;DHT22;35045;51.194;7.268;2023-01-15T04:13:30;5.70;99.90
49218;DHT22;35045;51.194;7.268;2023-01-15T04:15:57;5.70;99.90
49218;DHT22;35045;51.194;7.268;2023-01-15T04:18:24;5.70;99.90
49218;DHT22;35045;51.194;7.268;2023-01-15T04:20:50;5.70;99.90
49218;DHT22;35045;51.194;7.268;2023-01-15T04:23:17;5.70;99.90
49218;DHT22;35045;51.194;7.268;2023-01-15T04:25:43;5.70;99.90
49218;DHT22;35045;51.194;7.268;2023-01-15T04:28:09;5.70;99.90
49218;DHT22;35045;51.194;7.268;2023-01-15T04:30:36;5.70;99.90
49218;DHT22;35045;51.194;7.268;2023-01-15T04:33:02;5.70;99.90
49218;DHT22;35045;51.194;7.268;2023-01-15T04:35:29;5.70;99.90
49218;DHT22;35045;51.194;7.268;2023-01-15T04:37:57;5.60;99.90
49218;DHT22;35045;51.194;7.268;2023-01-15T04:40:24;5.60;99.90
49218;DHT22;35045;51.194;7.268;2023-01-15T04:43:13;5.60;99.90
49218;DHT22;35045;51.194;7.268;2023-01-15T04:45:58;5.60;99.90
49218;DHT22;35045;51.194;7.268;2023-01-15T04:48:25;5.60;99.90
49218;DHT22;35045;51.194;7.268;2023-01-15T04:50:51;5.60;99.90
49218;DHT22;35045;51.194;7.268;2023-01-15T04:53:17;5.60;99.90
49218;DHT22;35045;51.194;7.268;2023-01-15T04:55:44;5.60;99.90
49218;DHT22;35045;51.194;7.268;2023-01-15T04:58:10;5.50;99.90
49218;DHT22;35045;51.194;7.268;2023-01-15T05:00:36;5.50;99.90
49218;DHT22;35045;51.194;7.268;2023-01-15T05:03:02;5.50;99.90
49218;DHT22;35045;51.194;7.268;2023-01-15T05:05:28;5.50;99.90
49218;DHT22;35045;51.194;7.268;2023-01-15T05:07:57;5.50;99.90
49218;DHT22;35045;51.194;7.268;2023-01-15T05:10:23;5.50;99.90
49218;DHT22;35045;51.194;7.268;2023-01-15T05:12:49;5.60;99.90
49218;DHT22;35045;51.194;7.268;2023-01-15T05:15:15;5.60;99.90
49218;DHT22;35045;51.194;7.268;2023-01-15T05:17:41;5.60;99.90
49218;DHT22;35045;51.194;7.268;2023-01-15T05:20:08;5.60;99.90
49218;DHT22;35045;51.194;7.268;2023-01-15T05:22:34;5.60;99.90
49218;DHT22;35045;51.194;7.268;2023-01-15T05:25:01;5.60;99.90
49218;DHT22;35045;51.194;7.268;2023-01-15T05:27:27;5.60;99.90
49218;DHT22;35045;51.194;7.268;2023-01-15T05:29:53;5.60;99.90
49218;DHT22;35045;51.194;7.268;2023-01-15T05:32:19;5.60;99.90
49218;DHT22;35045;51.194;7.268;2023-01-15T05:34:45;5.50;99.90
49218;DHT22;35045;51.194;7.268;2023-01-15T05:37:11;5.60;99.90
49218;DHT22;35045;51.194;7.268;2023-01-15T05:39:37;5.60;99.90
49218;DHT22;35045;51.194;7.268;2023-01-15T05:42:04;5.60;99.90
49218;DHT22;35045;51.194;7.268;2023-01-15T05:44:30;5.60;99.90
49218;DHT22;35045;51.194;7.268;2023-01-15T05:46:59;5.50;99.90
49218;DHT22;35045;51.194;7.268;2023-01-15T05:49:28;5.60;99.90
49218;DHT22;35045;51.194;7.268;2023-01-15T05:51:57;5.60;99.90
49218;DHT22;35045;51.194;7.268;2023-01-15T05:54:26;5.70;99.90
49218;DHT22;35045;51.194;7.268;2023-01-15T05:56:53;5.70;99.90
49218;DHT22;35045;51.194;7.268;2023-01-15T05:59:21;5.70;99.90
49218;DHT22;35045;51.194;7.268;2023-01-15T06:01:48;5.70;99.90
49218;DHT22;35045;51.194;7.268;2023-01-15T06:04:16;5.70;99.90
49218;DHT22;35045;51.194;7.268;2023-01-15T06:06:49;5.70;99.90
49218;DHT22;35045;51.194;7.268;2023-01-15T06:09:17;5.60;99.90
49218;DHT22;35045;51.194;7.268;2023-01-15T06:11:43;5.70;99.90
49218;DHT22;35045;51.194;7.268;2023-01-15T06:14:11;5.70;99.90
49218;DHT22;35045;51.194;7.268;2023-01-15T06:16:38;5.70;99.90
49218;DHT22;35045;51.194;7.268;2023-01-15T06:19:07;5.70;99.90
49218;DHT22;35045;51.194;7.268;2023-01-15T06:21:34;5.70;99.90
49218;DHT22;35045;51.194;7.268;2023-01-15T06:24:01;5.70;99.90
49218;DHT22;35045;51.194;7.268;2023-01-15T06:26:27;5.70;99.90
49218;DHT22;35045;51.194;7.268;2023-01-15T06:28:53;5.70;99.90
49218;DHT22;35045;51.194;7.268;2023-01-15T06:31:21;5.70;99.90
49218;DHT22;35045;51.194;7.268;2023-01-15T06:33:48;5.70;99.90
49218;DHT22;35045;51.194;7.268;2023-01-15T06:36:18;5.70;99.90
49218;DHT22;35045;51.194;7.268;2023-01-15T06:38:46;5.70;99.90
49218;DHT22;35045;51.194;7.268;2023-01-15T06:41:15;5.70;99.90
49218;DHT22;35045;51.194;7.268;2023-01-15T06:44:01;5.70;99.90
49218;DHT22;35045;51.194;7.268;2023-01-15T06:46:48;5.80;99.90
49218;DHT22;35045;51.194;7.268;2023-01-15T06:49:34;5.80;99.90
49218;DHT22;35045;51.194;7.268;2023-01-15T06:52:00;5.80;99.90
49218;DHT22;35045;51.194;7.268;2023-01-15T06:54:27;5.80;99.90
49218;DHT22;35045;51.194;7.268;2023-01-15T06:56:53;5.80;99.90
49218;DHT22;35045;51.194;7.268;2023-01-15T06:59:20;5.70;99.90
49218;DHT22;35045;51.194;7.268;2023-01-15T07:01:46;5.70;99.90
49218;DHT22;35045;51.194;7.268;2023-01-15T07:04:13;5.80;99.90
49218;DHT22;35045;51.194;7.268;2023-01-15T07:06:39;5.70;99.90
49218;DHT22;35045;51.194;7.268;2023-01-15T07:09:05;5.70;99.90
49218;DHT22;35045;51.194;7.268;2023-01-15T07:11:32;5.70;99.90
49218;DHT22;35045;51.194;7.268;2023-01-15T07:13:58;5.70;99.90
49218;DHT22;35045;51.194;7.268;2023-01-15T07:16:32;5.70;99.90
49218;DHT22;35045;51.194;7.268;2023-01-15T07:18:58;5.70;99.90
49218;DHT22;35045;51.194;7.268;2023-01-15T07:21:24;5.60;99.90
49218;DHT22;35045;51.194;7.268;2023-01-15T07:23:50;5.60;99.90
49218;DHT22;35045;51.194;7.268;2023-01-15T07:26:17;5.60;99.90
49218;DHT22;35045;51.194;7.268;2023-01-15T07:28:43;5.60;99.90
49218;DHT22;35045;51.194;7.268;2023-01-15T07:31:09;5.60;99.90
49218;DHT22;35045;51.194;7.268;2023-01-15T07:33:36;5.60;99.90
49218;DHT22;35045;51.194;7.268;2023-01-15T07:36:04;5.60;99.90
49218;DHT22;35045;51.194;7.268;2023-01-15T07:38:30;5.60;99.90
49218;DHT22;35045;51.194;7.268;2023-01-15T07:40:57;5.60;99.90
49218;DHT22;35045;51.194;7.268;2023-01-15T07:43:42;5.60;99.90
49218;DHT22;35045;51.194;7.268;2023-01-15T07:46:28;5.70;99.90
49218;DHT22;35045;51.194;7.268;2023-01-15T07:49:13;5.60;99.90
49218;DHT22;35045;51.194;7.268;2023-01-15T07:51:58;5.60;99.90
49218;DHT22;35045;51.194;7.268;2023-01-15T07:54:25;5.60;99.90
49218;DHT22;35045;51.194;7.268;2023-01-15T07:56:52;5.60;99.90
49218;DHT22;35045;51.194;7.268;2023-01-15T07:59:19;5.60;99.90
49218;DHT22;35045;51.194;7.268;2023-01-15T08:01:45;5.60;99.90
49218;DHT22;35045;51.194;7.268;2023-01-15T08:04:11;5.50;99.90
49218;DHT22;35045;51.194;7.268;2023-01-15T08:06:37;5.50;99.90
49218;DHT22;35045;51.194;7.268;2023-01-15T08:09:04;5.60;99.90
49218;DHT22;35045;51.194;7.268;2023-01-15T08:11:32;5.50;99.90
49218;DHT22;35045;51.194;7.268;2023-01-15T08:14:18;5.60;99.90
49218;DHT22;35045;51.194;7.268;2023-01-15T08:17:03;5.60;99.90
49218;DHT22;35045;51.194;7.268;2023-01-15T08:19:29;5.60;99.90
49218;DHT22;35045;51.194;7.268;2023-01-15T08:21:56;5.60;99.90
49218;DHT22;35045;51.194;7.268;2023-01-15T08:24:23;5.50;99.90
49218;DHT22;35045;51.194;7.268;2023-01-15T08:26:49;5.50;99.90
49218;DHT22;35045;51.194;7.268;2023-01-15T08:29:16;5.50;99.90
49218;DHT22;35045;51.194;7.268;2023-01-15T08:31:43;5.50;99.90
49218;DHT22;35045;51.194;7.268;2023-01-15T08:34:09;5.50;99.90
49218;DHT22;35045;51.194;7.268;2023-01-15T08:36:35;5.40;99.90
49218;DHT22;35045;51.194;7.268;2023-01-15T08:39:02;5.40;99.90
49218;DHT22;35045;51.194;7.268;2023-01-15T08:41:29;5.50;99.90
49218;DHT22;35045;51.194;7.268;2023-01-15T08:43:56;5.50;99.90
49218;DHT22;35045;51.194;7.268;2023-01-15T08:46:22;5.50;99.90
49218;DHT22;35045;51.194;7.268;2023-01-15T08:48:48;5.40;99.90
49218;DHT22;35045;51.194;7.268;2023-01-15T08:51:14;5.30;99.90
49218;DHT22;35045;51.194;7.268;2023-01-15T08:53:40;5.40;99.90
49218;DHT22;35045;51.194;7.268;2023-01-15T08:56:17;5.40;99.90
49218;DHT22;35045;51.194;7.268;2023-01-15T08:58:44;5.30;99.90
49218;DHT22;35045;51.194;7.268;2023-01-15T09:01:11;5.30;99.90
49218;DHT22;35045;51.194;7.268;2023-01-15T09:03:41;5.30;99.90
49218;DHT22;35045;51.194;7.268;2023-01-15T09:06:08;5.30;99.90
49218;DHT22;35045;51.194;7.268;2023-01-15T09:08:36;5.30;99.90
49218;DHT22;35045;51.194;7.268;2023-01-15T09:11:04;5.30;99.90
49218;DHT22;35045;51.194;7.268;2023-01-15T09:13:31;5.20;99.90
49218;DHT22;35045;51.194;7.268;2023-01-15T09:16:02;5.20;99.90
49218;DHT22;35045;51.194;7.268;2023-01-15T09:18:30;5.20;99.90
49218;DHT22;35045;51.194;7.268;2023-01-15T09:20:56;5.20;99.90
49218;DHT22;35045;51.194;7.268;2023-01-15T09:23:23;5.10;99.90
49218;DHT22;35045;51.194;7.268;2023-01-15T09:25:58;5.20;99.90
49218;DHT22;35045;51.194;7.268;2023-01-15T09:28:24;5.10;99.90
49218;DHT22;35045;51.194;7.268;2023-01-15T09:30:50;5.10;99.90
49218;DHT22;35045;51.194;7.268;2023-01-15T09:33:16;5.00;99.90
49218;DHT22;35045;51.194;7.268;2023-01-15T09:35:43;5.10;99.90
49218;DHT22;35045;51.194;7.268;2023-01-15T09:38:18;5.10;99.90
49218;DHT22;35045;51.194;7.268;2023-01-15T09:40:56;5.10;99.90
49218;DHT22;35045;51.194;7.268;2023-01-15T09:43:45;5.10;99.90
49218;DHT22;35045;51.194;7.268;2023-01-15T09:57:13;5.30;99.90
49218;DHT22;35045;51.194;7.268;2023-01-15T09:59:48;5.30;99.90
49218;DHT22;35045;51.194;7.268;2023-01-15T10:02:28;5.30;99.90
49218;DHT22;35045;51.194;7.268;2023-01-15T10:05:03;5.50;99.90
49218;DHT22;35045;51.194;7.268;2023-01-15T10:10:25;5.50;99.90
49218;DHT22;35045;51.194;7.268;2023-01-15T10:13:02;5.40;99.90
49218;DHT22;35045;51.194;7.268;2023-01-15T10:18:04;5.50;99.90
49218;DHT22;35045;51.194;7.268;2023-01-15T10:21:04;5.60;99.90
49218;DHT22;35045;51.194;7.268;2023-01-15T10:24:04;5.80;99.90
49218;DHT22;35045;51.194;7.268;2023-01-15T10:26:38;5.90;99.90
49218;DHT22;35045;51.194;7.268;2023-01-15T10:29:53;6.00;99.90
49218;DHT22;35045;51.194;7.268;2023-01-15T10:37:57;6.10;99.90
49218;DHT22;35045;51.194;7.268;2023-01-15T10:46:16;6.00;99.90
49218;DHT22;35045;51.194;7.268;2023-01-15T10:48:49;5.90;99.90
49218;DHT22;35045;51.194;7.268;2023-01-15T10:51:43;5.80;99.90
49218;DHT22;35045;51.194;7.268;2023-01-15T10:54:25;5.80;99.90
49218;DHT22;35045;51.194;7.268;2023-01-15T10:57:13;5.80;99.90
49218;DHT22;35045;51.194;7.268;2023-01-15T10:59:58;5.80;99.90
49218;DHT22;35045;51.194;7.268;2023-01-15T11:02:44;5.90;99.90
49218;DHT22;35045;51.194;7.268;2023-01-15T11:05:14;5.80;99.90
49218;DHT22;35045;51.194;7.268;2023-01-15T11:07:43;5.90;99.90
49218;DHT22;35045;51.194;7.268;2023-01-15T11:10:31;5.80;99.90
49218;DHT22;35045;51.194;7.268;2023-01-15T11:13:01;5.90;99.90
49218;DHT22;35045;51.194;7.268;2023-01-15T11:15:55;5.80;99.90
49218;DHT22;35045;51.194;7.268;2023-01-15T11:18:42;5.80;99.90
49218;DHT22;35045;51.194;7.268;2023-01-15T11:21:27;5.80;99.90
49218;DHT22;35045;51.194;7.268;2023-01-15T11:23:55;5.90;99.90
49218;DHT22;35045;51.194;7.268;2023-01-15T11:26:24;5.80;99.90
49218;DHT22;35045;51.194;7.268;2023-01-15T11:28:52;5.80;99.90
49218;DHT22;35045;51.194;7.268;2023-01-15T11:31:19;5.80;99.90
49218;DHT22;35045;51.194;7.268;2023-01-15T11:34:18;5.70;99.90
49218;DHT22;35045;51.194;7.268;2023-01-15T11:36:47;5.70;99.90
49218;DHT22;35045;51.194;7.268;2023-01-15T11:39:25;5.70;99.90
49218;DHT22;35045;51.194;7.268;2023-01-15T11:42:18;5.70;99.90
49218;DHT22;35045;51.194;7.268;2023-01-15T11:45:12;5.70;99.90
49218;DHT22;35045;51.194;7.268;2023-01-15T11:47:57;5.70;99.90
49218;DHT22;35045;51.194;7.268;2023-01-15T11:51:09;5.70;99.90
49218;DHT22;35045;51.194;7.268;2023-01-15T11:53:53;5.60;99.90
49218;DHT22;35045;51.194;7.268;2023-01-15T11:56:25;5.70;99.90
49218;DHT22;35045;51.194;7.268;2023-01-15T11:58:54;5.70;99.90
49218;DHT22;35045;51.194;7.268;2023-01-15T12:01:31;5.60;99.90
49218;DHT22;35045;51.194;7.268;2023-01-15T12:04:00;5.60;99.90
49218;DHT22;35045;51.194;7.268;2023-01-15T12:06:27;5.70;99.90
49218;DHT22;35045;51.194;7.268;2023-01-15T12:09:46;5.70;99.90
49218;DHT22;35045;51.194;7.268;2023-01-15T12:15:11;5.70;99.90
49218;DHT22;35045;51.194;7.268;2023-01-15T12:23:27;5.80;99.90
49218;DHT22;35045;51.194;7.268;2023-01-15T12:26:07;5.80;99.90
49218;DHT22;35045;51.194;7.268;2023-01-15T12:28:55;5.80;99.90
49218;DHT22;35045;51.194;7.268;2023-01-15T12:31:36;5.80;99.90
49218;DHT22;35045;51.194;7.268;2023-01-15T12:34:20;5.80;99.90
49218;DHT22;35045;51.194;7.268;2023-01-15T12:36:54;5.80;99.90
49218;DHT22;35045;51.194;7.268;2023-01-15T12:42:01;5.80;99.90
49218;DHT22;35045;51.194;7.268;2023-01-15T12:44:52;5.70;99.90
49218;DHT22;35045;51.194;7.268;2023-01-15T12:48:01;5.70;99.90
49218;DHT22;35045;51.194;7.268;2023-01-15T12:50:46;5.60;99.90
49218;DHT22;35045;51.194;7.268;2023-01-15T12:53:41;5.60;99.90
49218;DHT22;35045;51.194;7.268;2023-01-15T12:58:58;5.70;99.90
49218;DHT22;35045;51.194;7.268;2023-01-15T13:01:47;5.70;99.90
49218;DHT22;35045;51.194;7.268;2023-01-15T13:07:44;5.70;99.90
49218;DHT22;35045;51.194;7.268;2023-01-15T13:10:23;5.80;99.90
49218;DHT22;35045;51.194;7.268;2023-01-15T13:12:52;5.80;99.90
49218;DHT22;35045;51.194;7.268;2023-01-15T13:15:27;5.80;99.90
49218;DHT22;35045;51.194;7.268;2023-01-15T13:20:46;5.80;99.90
49218;DHT22;35045;51.194;7.268;2023-01-15T13:23:32;5.80;99.90
49218;DHT22;35045;51.194;7.268;2023-01-15T13:26:36;5.80;99.90
49218;DHT22;35045;51.194;7.268;2023-01-15T13:32:06;5.90;99.90
49218;DHT22;35045;51.194;7.268;2023-01-15T13:37:30;5.90;99.90
49218;DHT22;35045;51.194;7.268;2023-01-15T13:40:02;5.80;99.90
49218;DHT22;35045;51.194;7.268;2023-01-15T13:42:30;5.80;99.90
49218;DHT22;35045;51.194;7.268;2023-01-15T13:45:05;5.80;99.90
49218;DHT22;35045;51.194;7.268;2023-01-15T13:47:35;5.80;99.90
49218;DHT22;35045;51.194;7.268;2023-01-15T13:50:06;5.80;99.90
49218;DHT22;35045;51.194;7.268;2023-01-15T13:52:37;5.80;99.90
49218;DHT22;35045;51.194;7.268;2023-01-15T13:55:19;5.80;99.90
49218;DHT22;35045;51.194;7.268;2023-01-15T13:57:45;5.80;99.90
49218;DHT22;35045;51.194;7.268;2023-01-15T14:03:22;5.80;99.90
49218;DHT22;35045;51.194;7.268;2023-01-15T14:05:57;5.80;99.90
49218;DHT22;35045;51.194;7.268;2023-01-15T14:08:35;5.80;99.90
49218;DHT22;35045;51.194;7.268;2023-01-15T14:11:02;5.80;99.90
49218;DHT22;35045;51.194;7.268;2023-01-15T14:19:14;5.80;99.90
49218;DHT22;35045;51.194;7.268;2023-01-15T14:21:57;5.90;99.90
49218;DHT22;35045;51.194;7.268;2023-01-15T14:30:54;5.90;99.90
49218;DHT22;35045;51.194;7.268;2023-01-15T14:35:44;5.90;99.90
49218;DHT22;35045;51.194;7.268;2023-01-15T14:38:15;5.90;99.90
49218;DHT22;35045;51.194;7.268;2023-01-15T14:40:58;6.00;99.90
49218;DHT22;35045;51.194;7.268;2023-01-15T14:43:31;5.90;99.90
49218;DHT22;35045;51.194;7.268;2023-01-15T14:46:14;5.90;99.90
49218;DHT22;35045;51.194;7.268;2023-01-15T14:48:43;5.90;99.90
49218;DHT22;35045;51.194;7.268;2023-01-15T14:54:01;5.90;99.90
49218;DHT22;35045;51.194;7.268;2023-01-15T14:56:47;5.80;99.90
49218;DHT22;35045;51.194;7.268;2023-01-15T14:59:36;5.80;99.90
49218;DHT22;35045;51.194;7.268;2023-01-15T15:02:19;5.80;99.90
49218;DHT22;35045;51.194;7.268;2023-01-15T15:04:50;5.80;99.90
49218;DHT22;35045;51.194;7.268;2023-01-15T15:07:25;5.80;99.90
49218;DHT22;35045;51.194;7.268;2023-01-15T15:12:48;5.80;99.90
49218;DHT22;35045;51.194;7.268;2023-01-15T15:18:14;5.80;99.90
49218;DHT22;35045;51.194;7.268;2023-01-15T15:23:37;5.80;99.90
49218;DHT22;35045;51.194;7.268;2023-01-15T15:26:16;5.70;99.90
49218;DHT22;35045;51.194;7.268;2023-01-15T15:28:58;5.80;99.90
49218;DHT22;35045;51.194;7.268;2023-01-15T15:31:24;5.80;99.90
49218;DHT22;35045;51.194;7.268;2023-01-15T15:33:53;5.80;99.90
49218;DHT22;35045;51.194;7.268;2023-01-15T15:36:21;5.70;99.90
49218;DHT22;35045;51.194;7.268;2023-01-15T15:39:00;5.70;99.90
49218;DHT22;35045;51.194;7.268;2023-01-15T15:41:34;5.80;99.90
49218;DHT22;35045;51.194;7.268;2023-01-15T15:44:42;5.80;99.90
49218;DHT22;35045;51.194;7.268;2023-01-15T15:47:36;5.80;99.90
49218;DHT22;35045;51.194;7.268;2023-01-15T15:50:29;5.70;99.90
49218;DHT22;35045;51.194;7.268;2023-01-15T15:52:56;5.70;99.90
49218;DHT22;35045;51.194;7.268;2023-01-15T15:55:26;5.80;99.90
49218;DHT22;35045;51.194;7.268;2023-01-15T15:57:59;5.80;99.90
49218;DHT22;35045;51.194;7.268;2023-01-15T16:00:34;5.70;99.90
49218;DHT22;35045;51.194;7.268;2023-01-15T16:03:06;5.80;99.90
49218;DHT22;35045;51.194;7.268;2023-01-15T16:05:34;5.80;99.90
49218;DHT22;35045;51.194;7.268;2023-01-15T16:08:16;5.80;99.90
49218;DHT22;35045;51.194;7.268;2023-01-15T16:10:45;5.70;99.90
49218;DHT22;35045;51.194;7.268;2023-01-15T16:13:27;5.70;99.90
49218;DHT22;35045;51.194;7.268;2023-01-15T16:15:56;5.70;99.90
49218;DHT22;35045;51.194;7.268;2023-01-15T16:18:26;5.70;99.90
49218;DHT22;35045;51.194;7.268;2023-01-15T16:20:53;5.70;99.90
49218;DHT22;35045;51.194;7.268;2023-01-15T16:23:24;5.60;99.90
49218;DHT22;35045;51.194;7.268;2023-01-15T16:28:34;5.60;99.90
49218;DHT22;35045;51.194;7.268;2023-01-15T16:31:01;5.60;99.90
49218;DHT22;35045;51.194;7.268;2023-01-15T16:33:28;5.60;99.90
49218;DHT22;35045;51.194;7.268;2023-01-15T16:35:56;5.70;99.90
49218;DHT22;35045;51.194;7.268;2023-01-15T16:38:23;5.60;99.90
49218;DHT22;35045;51.194;7.268;2023-01-15T16:40:50;5.60;99.90
49218;DHT22;35045;51.194;7.268;2023-01-15T16:43:20;5.70;99.90
49218;DHT22;35045;51.194;7.268;2023-01-15T16:46:06;5.70;99.90
49218;DHT22;35045;51.194;7.268;2023-01-15T16:48:37;5.70;99.90
49218;DHT22;35045;51.194;7.268;2023-01-15T16:51:30;5.70;99.90
49218;DHT22;35045;51.194;7.268;2023-01-15T16:54:01;5.60;99.90
49218;DHT22;35045;51.194;7.268;2023-01-15T17:01:53;5.60;99.90
49218;DHT22;35045;51.194;7.268;2023-01-15T17:04:30;5.70;99.90
49218;DHT22;35045;51.194;7.268;2023-01-15T17:07:06;5.70;99.90
49218;DHT22;35045;51.194;7.268;2023-01-15T17:09:35;5.70;99.90
49218;DHT22;35045;51.194;7.268;2023-01-15T17:12:29;5.70;99.90
49218;DHT22;35045;51.194;7.268;2023-01-15T17:17:42;5.70;99.90
49218;DHT22;35045;51.194;7.268;2023-01-15T17:20:10;5.70;99.90
49218;DHT22;35045;51.194;7.268;2023-01-15T17:22:40;5.70;99.90
49218;DHT22;35045;51.194;7.268;2023-01-15T17:25:23;5.70;99.90
49218;DHT22;35045;51.194;7.268;2023-01-15T17:27:54;5.70;99.90
49218;DHT22;35045;51.194;7.268;2023-01-15T17:30:22;5.80;99.90
49218;DHT22;35045;51.194;7.268;2023-01-15T17:32:56;5.70;99.90
49218;DHT22;35045;51.194;7.268;2023-01-15T17:35:25;5.80;99.90
49218;DHT22;35045;51.194;7.268;2023-01-15T17:37:51;5.70;99.90
49218;DHT22;35045;51.194;7.268;2023-01-15T17:40:19;5.70;99.90
49218;DHT22;35045;51.194;7.268;2023-01-15T17:42:45;5.70;99.90
49218;DHT22;35045;51.194;7.268;2023-01-15T17:45:20;5.70;99.90
49218;DHT22;35045;51.194;7.268;2023-01-15T17:47:47;5.70;99.90
49218;DHT22;35045;51.194;7.268;2023-01-15T17:50:13;5.50;99.90
49218;DHT22;35045;51.194;7.268;2023-01-15T17:52:40;5.40;99.90
49218;DHT22;35045;51.194;7.268;2023-01-15T17:55:08;5.30;99.90
49218;DHT22;35045;51.194;7.268;2023-01-15T17:57:52;5.20;99.90
49218;DHT22;35045;51.194;7.268;2023-01-15T18:00:37;5.20;99.90
49218;DHT22;35045;51.194;7.268;2023-01-15T18:03:22;5.00;99.90
49218;DHT22;35045;51.194;7.268;2023-01-15T18:06:11;5.00;99.90
49218;DHT22;35045;51.194;7.268;2023-01-15T18:08:39;4.90;99.90
49218;DHT22;35045;51.194;7.268;2023-01-15T18:11:06;4.80;99.90